sensor_id;sensor_type;location;lat;lon;timestamp;P1;durP1;ratioP1;P2;durP2;ratioP2
77944;SDS011;67142;47.404;-1.384;2023-06-14T00:00:40;391.75;;;139.27;;
77944;SDS011;67142;47.404;-1.384;2023-06-14T00:03:07;378.27;;;135.07;;
77944;SDS011;67142;47.404;-1.384;2023-06-14T00:05:37;373.80;;;135.10;;
77944;SDS011;67142;47.404;-1.384;2023-06-14T00:08:08;378.80;;;135.80;;
77944;SDS011;67142;47.404;-1.384;2023-06-14T00:10:34;421.02;;;146.93;;
77944;SDS011;67142;47.404;-1.384;2023-06-14T00:13:01;408.60;;;143.10;;
77944;SDS011;67142;47.404;-1.384;2023-06-14T00:15:27;420.03;;;146.83;;
77944;SDS011;67142;47.404;-1.384;2023-06-14T00:17:53;396.30;;;140.68;;
77944;SDS011;67142;47.404;-1.384;2023-06-14T00:20:20;380.25;;;136.15;;
77944;SDS011;67142;47.404;-1.384;2023-06-14T00:22:46;419.10;;;146.02;;
77944;SDS011;67142;47.404;-1.384;2023-06-14T00:25:13;441.08;;;151.52;;
77944;SDS011;67142;47.404;-1.384;2023-06-14T00:27:39;423.03;;;146.70;;
77944;SDS011;67142;47.404;-1.384;2023-06-14T00:30:05;425.30;;;147.00;;
77944;SDS011;67142;47.404;-1.384;2023-06-14T00:32:31;407.63;;;143.38;;
77944;SDS011;67142;47.404;-1.384;2023-06-14T00:34:57;379.88;;;135.15;;
77944;SDS011;67142;47.404;-1.384;2023-06-14T00:37:23;409.92;;;142.75;;
77944;SDS011;67142;47.404;-1.384;2023-06-14T00:39:49;424.07;;;146.67;;
77944;SDS011;67142;47.404;-1.384;2023-06-14T00:42:27;369.38;;;133.90;;
77944;SDS011;67142;47.404;-1.384;2023-06-14T00:44:53;339.58;;;127.65;;
77944;SDS011;67142;47.404;-1.384;2023-06-14T00:47:19;401.25;;;141.68;;
77944;SDS011;67142;47.404;-1.384;2023-06-14T00:49:46;409.92;;;143.90;;
77944;SDS011;67142;47.404;-1.384;2023-06-14T00:52:13;436.97;;;150.67;;
77944;SDS011;67142;47.404;-1.384;2023-06-14T00:54:40;432.02;;;149.23;;
77944;SDS011;67142;47.404;-1.384;2023-06-14T00:57:07;437.13;;;152.68;;
77944;SDS011;67142;47.404;-1.384;2023-06-14T00:59:33;437.33;;;151.75;;
77944;SDS011;67142;47.404;-1.384;2023-06-14T01:01:59;399.80;;;143.82;;
77944;SDS011;67142;47.404;-1.384;2023-06-14T01:04:25;358.20;;;131.70;;
77944;SDS011;67142;47.404;-1.384;2023-06-14T01:06:57;359.30;;;132.43;;
77944;SDS011;67142;47.404;-1.384;2023-06-14T01:09:42;381.48;;;137.25;;
77944;SDS011;67142;47.404;-1.384;2023-06-14T01:12:15;353.52;;;131.05;;
77944;SDS011;67142;47.404;-1.384;2023-06-14T01:14:43;360.50;;;133.45;;
77944;SDS011;67142;47.404;-1.384;2023-06-14T01:17:09;337.00;;;127.33;;
77944;SDS011;67142;47.404;-1.384;2023-06-14T01:19:42;373.70;;;134.55;;
77944;SDS011;67142;47.404;-1.384;2023-06-14T01:22:08;335.15;;;127.45;;
77944;SDS011;67142;47.404;-1.384;2023-06-14T01:24:34;339.17;;;126.82;;
77944;SDS011;67142;47.404;-1.384;2023-06-14T01:27:00;344.52;;;129.18;;
77944;SDS011;67142;47.404;-1.384;2023-06-14T01:29:27;314.73;;;122.83;;
77944;SDS011;67142;47.404;-1.384;2023-06-14T01:31:58;296.65;;;119.60;;
77944;SDS011;67142;47.404;-1.384;2023-06-14T01:34:24;291.08;;;118.57;;
77944;SDS011;67142;47.404;-1.384;2023-06-14T01:36:50;279.88;;;115.25;;
77944;SDS011;67142;47.404;-1.384;2023-06-14T01:39:16;285.20;;;117.13;;
77944;SDS011;67142;47.404;-1.384;2023-06-14T01:41:43;282.07;;;116.70;;
77944;SDS011;67142;47.404;-1.384;2023-06-14T01:44:10;277.10;;;115.88;;
77944;SDS011;67142;47.404;-1.384;2023-06-14T01:46:36;280.52;;;116.68;;
77944;SDS011;67142;47.404;-1.384;2023-06-14T01:49:02;275.92;;;114.65;;
77944;SDS011;67142;47.404;-1.384;2023-06-14T01:51:28;275.98;;;116.15;;
77944;SDS011;67142;47.404;-1.384;2023-06-14T01:53:55;273.37;;;116.07;;
77944;SDS011;67142;47.404;-1.384;2023-06-14T01:56:22;274.75;;;115.43;;
77944;SDS011;67142;47.404;-1.384;2023-06-14T01:58:48;275.20;;;117.70;;
77944;SDS011;67142;47.404;-1.384;2023-06-14T02:01:14;277.23;;;115.68;;
77944;SDS011;67142;47.404;-1.384;2023-06-14T02:03:41;274.33;;;116.40;;
77944;SDS011;67142;47.404;-1.384;2023-06-14T02:06:09;274.57;;;115.77;;
77944;SDS011;67142;47.404;-1.384;2023-06-14T02:08:35;274.38;;;114.75;;
77944;SDS011;67142;47.404;-1.384;2023-06-14T02:11:01;270.67;;;114.63;;
77944;SDS011;67142;47.404;-1.384;2023-06-14T02:13:27;277.88;;;115.72;;
77944;SDS011;67142;47.404;-1.384;2023-06-14T02:15:53;269.38;;;115.30;;
77944;SDS011;67142;47.404;-1.384;2023-06-14T02:18:20;273.60;;;114.50;;
77944;SDS011;67142;47.404;-1.384;2023-06-14T02:20:46;270.95;;;114.97;;
77944;SDS011;67142;47.404;-1.384;2023-06-14T02:23:13;278.95;;;115.38;;
77944;SDS011;67142;47.404;-1.384;2023-06-14T02:25:39;273.38;;;116.60;;
77944;SDS011;67142;47.404;-1.384;2023-06-14T02:28:06;272.23;;;115.25;;
77944;SDS011;67142;47.404;-1.384;2023-06-14T02:30:32;273.30;;;115.60;;
77944;SDS011;67142;47.404;-1.384;2023-06-14T02:32:57;279.15;;;114.85;;
77944;SDS011;67142;47.404;-1.384;2023-06-14T02:35:24;280.15;;;116.38;;
77944;SDS011;67142;47.404;-1.384;2023-06-14T02:37:52;284.75;;;117.72;;
77944;SDS011;67142;47.404;-1.384;2023-06-14T02:40:18;281.45;;;117.60;;
77944;SDS011;67142;47.404;-1.384;2023-06-14T02:42:45;275.00;;;114.63;;
77944;SDS011;67142;47.404;-1.384;2023-06-14T02:45:11;280.35;;;116.20;;
77944;SDS011;67142;47.404;-1.384;2023-06-14T02:47:37;284.65;;;118.55;;
77944;SDS011;67142;47.404;-1.384;2023-06-14T02:50:03;283.73;;;116.75;;
77944;SDS011;67142;47.404;-1.384;2023-06-14T02:52:29;291.17;;;118.70;;
77944;SDS011;67142;47.404;-1.384;2023-06-14T02:54:55;277.23;;;116.17;;
77944;SDS011;67142;47.404;-1.384;2023-06-14T02:57:21;278.48;;;116.93;;
77944;SDS011;67142;47.404;-1.384;2023-06-14T02:59:48;271.85;;;115.25;;
77944;SDS011;67142;47.404;-1.384;2023-06-14T03:02:14;277.70;;;116.20;;
77944;SDS011;67142;47.404;-1.384;2023-06-14T03:04:40;272.27;;;114.35;;
77944;SDS011;67142;47.404;-1.384;2023-06-14T03:07:09;275.43;;;115.37;;
77944;SDS011;67142;47.404;-1.384;2023-06-14T03:09:39;272.85;;;115.78;;
77944;SDS011;67142;47.404;-1.384;2023-06-14T03:12:05;280.00;;;117.68;;
77944;SDS011;67142;47.404;-1.384;2023-06-14T03:14:32;275.08;;;116.15;;
77944;SDS011;67142;47.404;-1.384;2023-06-14T03:16:58;270.38;;;115.93;;
77944;SDS011;67142;47.404;-1.384;2023-06-14T03:19:25;266.73;;;113.97;;
77944;SDS011;67142;47.404;-1.384;2023-06-14T03:21:51;268.83;;;115.13;;
77944;SDS011;67142;47.404;-1.384;2023-06-14T03:24:18;278.25;;;117.28;;
77944;SDS011;67142;47.404;-1.384;2023-06-14T03:26:45;274.65;;;116.70;;
77944;SDS011;67142;47.404;-1.384;2023-06-14T03:29:11;279.40;;;117.20;;
77944;SDS011;67142;47.404;-1.384;2023-06-14T03:31:41;285.73;;;119.10;;
77944;SDS011;67142;47.404;-1.384;2023-06-14T03:34:22;280.77;;;120.18;;
77944;SDS011;67142;47.404;-1.384;2023-06-14T03:36:47;283.85;;;119.32;;
77944;SDS011;67142;47.404;-1.384;2023-06-14T03:39:14;269.98;;;115.07;;
77944;SDS011;67142;47.404;-1.384;2023-06-14T03:41:40;274.65;;;115.40;;
77944;SDS011;67142;47.404;-1.384;2023-06-14T03:44:06;261.70;;;113.80;;
77944;SDS011;67142;47.404;-1.384;2023-06-14T03:46:32;275.80;;;118.13;;
77944;SDS011;67142;47.404;-1.384;2023-06-14T03:48:58;277.65;;;118.75;;
77944;SDS011;67142;47.404;-1.384;2023-06-14T03:51:25;274.08;;;117.63;;
77944;SDS011;67142;47.404;-1.384;2023-06-14T03:53:51;279.92;;;118.70;;
77944;SDS011;67142;47.404;-1.384;2023-06-14T03:56:17;285.90;;;120.07;;
77944;SDS011;67142;47.404;-1.384;2023-06-14T03:58:43;279.13;;;118.57;;
77944;SDS011;67142;47.404;-1.384;2023-06-14T04:01:09;289.10;;;120.85;;
77944;SDS011;67142;47.404;-1.384;2023-06-14T04:03:37;273.92;;;117.40;;
77944;SDS011;67142;47.404;-1.384;2023-06-14T04:06:03;275.48;;;117.85;;
77944;SDS011;67142;47.404;-1.384;2023-06-14T04:08:30;275.07;;;118.50;;
77944;SDS011;67142;47.404;-1.384;2023-06-14T04:10:56;273.55;;;118.05;;
77944;SDS011;67142;47.404;-1.384;2023-06-14T04:13:22;281.10;;;119.35;;
77944;SDS011;67142;47.404;-1.384;2023-06-14T04:15:48;285.95;;;119.75;;
77944;SDS011;67142;47.404;-1.384;2023-06-14T04:18:14;298.55;;;125.15;;
77944;SDS011;67142;47.404;-1.384;2023-06-14T04:20:40;304.83;;;125.87;;
77944;SDS011;67142;47.404;-1.384;2023-06-14T04:23:13;303.67;;;125.10;;
77944;SDS011;67142;47.404;-1.384;2023-06-14T04:25:40;289.75;;;121.88;;
77944;SDS011;67142;47.404;-1.384;2023-06-14T04:28:09;284.52;;;120.97;;
77944;SDS011;67142;47.404;-1.384;2023-06-14T04:30:36;306.15;;;125.45;;
77944;SDS011;67142;47.404;-1.384;2023-06-14T04:33:03;287.67;;;123.83;;
77944;SDS011;67142;47.404;-1.384;2023-06-14T04:35:30;300.58;;;124.60;;
77944;SDS011;67142;47.404;-1.384;2023-06-14T04:37:57;288.17;;;123.03;;
77944;SDS011;67142;47.404;-1.384;2023-06-14T04:40:24;306.45;;;125.40;;
77944;SDS011;67142;47.404;-1.384;2023-06-14T04:42:50;305.35;;;126.13;;
77944;SDS011;67142;47.404;-1.384;2023-06-14T04:45:16;310.73;;;127.00;;
77944;SDS011;67142;47.404;-1.384;2023-06-14T04:47:42;308.65;;;126.43;;
77944;SDS011;67142;47.404;-1.384;2023-06-14T04:50:09;282.17;;;120.50;;
77944;SDS011;67142;47.404;-1.384;2023-06-14T04:52:38;302.30;;;123.97;;
77944;SDS011;67142;47.404;-1.384;2023-06-14T04:55:04;315.98;;;128.75;;
77944;SDS011;67142;47.404;-1.384;2023-06-14T04:57:31;286.93;;;121.60;;
77944;SDS011;67142;47.404;-1.384;2023-06-14T04:59:57;288.02;;;121.50;;
77944;SDS011;67142;47.404;-1.384;2023-06-14T05:02:26;287.10;;;123.00;;
77944;SDS011;67142;47.404;-1.384;2023-06-14T05:04:52;282.70;;;121.07;;
77944;SDS011;67142;47.404;-1.384;2023-06-14T05:07:19;287.63;;;122.28;;
77944;SDS011;67142;47.404;-1.384;2023-06-14T05:09:45;280.97;;;119.10;;
77944;SDS011;67142;47.404;-1.384;2023-06-14T05:12:11;288.92;;;122.22;;
77944;SDS011;67142;47.404;-1.384;2023-06-14T05:14:37;303.58;;;125.38;;
77944;SDS011;67142;47.404;-1.384;2023-06-14T05:17:04;291.23;;;122.93;;
77944;SDS011;67142;47.404;-1.384;2023-06-14T05:19:30;317.80;;;129.35;;
77944;SDS011;67142;47.404;-1.384;2023-06-14T05:21:56;316.50;;;128.30;;
77944;SDS011;67142;47.404;-1.384;2023-06-14T05:24:22;310.45;;;127.80;;
77944;SDS011;67142;47.404;-1.384;2023-06-14T05:26:48;284.05;;;122.60;;
77944;SDS011;67142;47.404;-1.384;2023-06-14T05:29:14;287.83;;;121.63;;
77944;SDS011;67142;47.404;-1.384;2023-06-14T05:31:41;285.10;;;121.90;;
77944;SDS011;67142;47.404;-1.384;2023-06-14T05:34:07;276.03;;;120.67;;
77944;SDS011;67142;47.404;-1.384;2023-06-14T05:36:33;288.80;;;122.63;;
77944;SDS011;67142;47.404;-1.384;2023-06-14T05:38:59;307.20;;;126.82;;
77944;SDS011;67142;47.404;-1.384;2023-06-14T05:41:26;303.90;;;124.63;;
77944;SDS011;67142;47.404;-1.384;2023-06-14T05:43:53;317.83;;;129.07;;
77944;SDS011;67142;47.404;-1.384;2023-06-14T05:46:19;293.73;;;124.63;;
77944;SDS011;67142;47.404;-1.384;2023-06-14T05:48:49;328.58;;;131.90;;
77944;SDS011;67142;47.404;-1.384;2023-06-14T05:51:15;284.45;;;123.10;;
77944;SDS011;67142;47.404;-1.384;2023-06-14T05:53:44;278.90;;;121.07;;
77944;SDS011;67142;47.404;-1.384;2023-06-14T05:56:11;319.77;;;130.98;;
77944;SDS011;67142;47.404;-1.384;2023-06-14T05:58:37;293.83;;;122.20;;
77944;SDS011;67142;47.404;-1.384;2023-06-14T06:01:03;300.42;;;124.75;;
77944;SDS011;67142;47.404;-1.384;2023-06-14T06:03:29;306.40;;;127.47;;
77944;SDS011;67142;47.404;-1.384;2023-06-14T06:05:55;332.30;;;133.98;;
77944;SDS011;67142;47.404;-1.384;2023-06-14T06:08:21;328.10;;;132.20;;
77944;SDS011;67142;47.404;-1.384;2023-06-14T06:10:47;271.13;;;119.80;;
77944;SDS011;67142;47.404;-1.384;2023-06-14T06:13:13;269.45;;;119.22;;
77944;SDS011;67142;47.404;-1.384;2023-06-14T06:15:39;268.95;;;120.43;;
77944;SDS011;67142;47.404;-1.384;2023-06-14T06:18:05;276.38;;;121.07;;
77944;SDS011;67142;47.404;-1.384;2023-06-14T06:20:31;279.13;;;123.28;;
77944;SDS011;67142;47.404;-1.384;2023-06-14T06:22:58;286.63;;;123.27;;
77944;SDS011;67142;47.404;-1.384;2023-06-14T06:25:24;290.17;;;124.50;;
77944;SDS011;67142;47.404;-1.384;2023-06-14T06:27:52;284.77;;;121.80;;
77944;SDS011;67142;47.404;-1.384;2023-06-14T06:30:18;292.20;;;123.97;;
77944;SDS011;67142;47.404;-1.384;2023-06-14T06:32:44;289.02;;;122.93;;
77944;SDS011;67142;47.404;-1.384;2023-06-14T06:35:11;253.10;;;113.60;;
77944;SDS011;67142;47.404;-1.384;2023-06-14T06:37:38;252.07;;;114.63;;
77944;SDS011;67142;47.404;-1.384;2023-06-14T06:40:04;251.65;;;115.88;;
77944;SDS011;67142;47.404;-1.384;2023-06-14T06:42:31;254.50;;;116.32;;
77944;SDS011;67142;47.404;-1.384;2023-06-14T06:44:57;259.45;;;117.40;;
77944;SDS011;67142;47.404;-1.384;2023-06-14T06:47:23;281.37;;;122.47;;
77944;SDS011;67142;47.404;-1.384;2023-06-14T06:49:50;281.58;;;124.18;;
77944;SDS011;67142;47.404;-1.384;2023-06-14T06:52:16;284.77;;;124.45;;
77944;SDS011;67142;47.404;-1.384;2023-06-14T06:54:42;298.13;;;125.55;;
77944;SDS011;67142;47.404;-1.384;2023-06-14T06:57:08;280.50;;;122.15;;
77944;SDS011;67142;47.404;-1.384;2023-06-14T06:59:36;276.13;;;120.10;;
77944;SDS011;67142;47.404;-1.384;2023-06-14T07:02:02;245.50;;;115.22;;
77944;SDS011;67142;47.404;-1.384;2023-06-14T07:04:28;260.58;;;119.80;;
77944;SDS011;67142;47.404;-1.384;2023-06-14T07:06:54;266.50;;;120.53;;
77944;SDS011;67142;47.404;-1.384;2023-06-14T07:09:20;268.77;;;120.75;;
77944;SDS011;67142;47.404;-1.384;2023-06-14T07:11:47;260.77;;;118.53;;
77944;SDS011;67142;47.404;-1.384;2023-06-14T07:14:13;246.38;;;113.28;;
77944;SDS011;67142;47.404;-1.384;2023-06-14T07:16:39;289.13;;;123.68;;
77944;SDS011;67142;47.404;-1.384;2023-06-14T07:19:06;260.08;;;117.60;;
77944;SDS011;67142;47.404;-1.384;2023-06-14T07:21:32;252.05;;;116.18;;
77944;SDS011;67142;47.404;-1.384;2023-06-14T07:23:58;255.30;;;119.43;;
77944;SDS011;67142;47.404;-1.384;2023-06-14T07:26:25;257.70;;;117.97;;
77944;SDS011;67142;47.404;-1.384;2023-06-14T07:28:51;249.40;;;116.25;;
77944;SDS011;67142;47.404;-1.384;2023-06-14T07:31:17;248.00;;;115.10;;
77944;SDS011;67142;47.404;-1.384;2023-06-14T07:33:44;246.63;;;112.93;;
77944;SDS011;67142;47.404;-1.384;2023-06-14T07:36:13;246.40;;;114.03;;
77944;SDS011;67142;47.404;-1.384;2023-06-14T07:38:39;249.93;;;117.30;;
77944;SDS011;67142;47.404;-1.384;2023-06-14T07:41:05;249.80;;;116.97;;
77944;SDS011;67142;47.404;-1.384;2023-06-14T07:43:31;234.50;;;111.78;;
77944;SDS011;67142;47.404;-1.384;2023-06-14T07:45:58;231.82;;;111.35;;
77944;SDS011;67142;47.404;-1.384;2023-06-14T07:48:24;238.67;;;113.03;;
77944;SDS011;67142;47.404;-1.384;2023-06-14T07:50:50;243.50;;;112.88;;
77944;SDS011;67142;47.404;-1.384;2023-06-14T07:53:16;240.85;;;114.35;;
77944;SDS011;67142;47.404;-1.384;2023-06-14T07:55:42;227.55;;;111.03;;
77944;SDS011;67142;47.404;-1.384;2023-06-14T07:58:08;231.32;;;111.38;;
77944;SDS011;67142;47.404;-1.384;2023-06-14T08:00:35;235.63;;;111.27;;
77944;SDS011;67142;47.404;-1.384;2023-06-14T08:03:01;234.18;;;111.38;;
77944;SDS011;67142;47.404;-1.384;2023-06-14T08:05:28;232.07;;;111.25;;
77944;SDS011;67142;47.404;-1.384;2023-06-14T08:07:54;233.55;;;111.72;;
77944;SDS011;67142;47.404;-1.384;2023-06-14T08:10:21;236.00;;;112.68;;
77944;SDS011;67142;47.404;-1.384;2023-06-14T08:12:47;236.77;;;114.20;;
77944;SDS011;67142;47.404;-1.384;2023-06-14T08:15:16;229.68;;;108.75;;
77944;SDS011;67142;47.404;-1.384;2023-06-14T08:17:43;213.48;;;108.43;;
77944;SDS011;67142;47.404;-1.384;2023-06-14T08:20:09;221.32;;;107.53;;
77944;SDS011;67142;47.404;-1.384;2023-06-14T08:22:36;206.88;;;105.38;;
77944;SDS011;67142;47.404;-1.384;2023-06-14T08:25:02;227.50;;;110.13;;
77944;SDS011;67142;47.404;-1.384;2023-06-14T08:27:28;229.52;;;110.88;;
77944;SDS011;67142;47.404;-1.384;2023-06-14T08:29:55;225.98;;;110.20;;
77944;SDS011;67142;47.404;-1.384;2023-06-14T08:32:21;213.52;;;106.32;;
77944;SDS011;67142;47.404;-1.384;2023-06-14T08:34:47;206.15;;;104.43;;
77944;SDS011;67142;47.404;-1.384;2023-06-14T08:37:13;207.77;;;104.57;;
77944;SDS011;67142;47.404;-1.384;2023-06-14T08:39:39;211.98;;;105.53;;
77944;SDS011;67142;47.404;-1.384;2023-06-14T08:42:05;207.18;;;104.95;;
77944;SDS011;67142;47.404;-1.384;2023-06-14T08:44:31;201.48;;;106.30;;
77944;SDS011;67142;47.404;-1.384;2023-06-14T08:46:58;208.13;;;105.40;;
77944;SDS011;67142;47.404;-1.384;2023-06-14T08:49:25;205.33;;;104.57;;
77944;SDS011;67142;47.404;-1.384;2023-06-14T08:51:58;208.55;;;106.72;;
77944;SDS011;67142;47.404;-1.384;2023-06-14T08:54:27;204.35;;;103.75;;
77944;SDS011;67142;47.404;-1.384;2023-06-14T08:56:55;196.93;;;101.97;;
77944;SDS011;67142;47.404;-1.384;2023-06-14T08:59:27;199.48;;;102.93;;
77944;SDS011;67142;47.404;-1.384;2023-06-14T09:01:53;197.47;;;102.83;;
77944;SDS011;67142;47.404;-1.384;2023-06-14T09:04:22;198.73;;;102.57;;
77944;SDS011;67142;47.404;-1.384;2023-06-14T09:06:50;198.68;;;103.65;;
77944;SDS011;67142;47.404;-1.384;2023-06-14T09:09:20;207.35;;;104.97;;
77944;SDS011;67142;47.404;-1.384;2023-06-14T09:11:46;211.10;;;104.63;;
77944;SDS011;67142;47.404;-1.384;2023-06-14T09:14:12;195.53;;;99.60;;
77944;SDS011;67142;47.404;-1.384;2023-06-14T09:16:38;195.13;;;102.97;;
77944;SDS011;67142;47.404;-1.384;2023-06-14T09:19:05;174.00;;;98.30;;
77944;SDS011;67142;47.404;-1.384;2023-06-14T09:21:33;201.57;;;103.00;;
77944;SDS011;67142;47.404;-1.384;2023-06-14T09:24:01;195.90;;;102.00;;
77944;SDS011;67142;47.404;-1.384;2023-06-14T09:26:27;182.80;;;98.57;;
77944;SDS011;67142;47.404;-1.384;2023-06-14T09:28:54;185.13;;;100.05;;
77944;SDS011;67142;47.404;-1.384;2023-06-14T09:31:20;181.18;;;98.88;;
77944;SDS011;67142;47.404;-1.384;2023-06-14T09:33:50;183.50;;;99.38;;
77944;SDS011;67142;47.404;-1.384;2023-06-14T09:38:51;176.80;;;97.10;;
77944;SDS011;67142;47.404;-1.384;2023-06-14T09:41:17;167.45;;;96.80;;
77944;SDS011;67142;47.404;-1.384;2023-06-14T09:43:43;142.68;;;89.57;;
77944;SDS011;67142;47.404;-1.384;2023-06-14T09:46:10;125.60;;;84.05;;
77944;SDS011;67142;47.404;-1.384;2023-06-14T09:48:36;122.95;;;84.28;;
77944;SDS011;67142;47.404;-1.384;2023-06-14T09:51:07;125.03;;;82.30;;
77944;SDS011;67142;47.404;-1.384;2023-06-14T09:53:34;118.18;;;81.28;;
77944;SDS011;67142;47.404;-1.384;2023-06-14T09:56:02;119.13;;;82.50;;
77944;SDS011;67142;47.404;-1.384;2023-06-14T09:58:29;117.03;;;81.47;;
77944;SDS011;67142;47.404;-1.384;2023-06-14T10:00:56;113.78;;;80.80;;
77944;SDS011;67142;47.404;-1.384;2023-06-14T10:03:28;99.97;;;75.33;;
77944;SDS011;67142;47.404;-1.384;2023-06-14T10:05:55;97.63;;;73.85;;
77944;SDS011;67142;47.404;-1.384;2023-06-14T10:08:23;94.30;;;74.72;;
77944;SDS011;67142;47.404;-1.384;2023-06-14T10:10:51;96.53;;;72.88;;
77944;SDS011;67142;47.404;-1.384;2023-06-14T10:13:17;89.72;;;71.57;;
77944;SDS011;67142;47.404;-1.384;2023-06-14T10:18:24;91.10;;;71.18;;
77944;SDS011;67142;47.404;-1.384;2023-06-14T10:23:40;73.53;;;65.25;;
77944;SDS011;67142;47.404;-1.384;2023-06-14T10:26:07;79.93;;;66.20;;
77944;SDS011;67142;47.404;-1.384;2023-06-14T10:28:34;81.33;;;69.87;;
77944;SDS011;67142;47.404;-1.384;2023-06-14T10:33:35;74.28;;;66.13;;
77944;SDS011;67142;47.404;-1.384;2023-06-14T10:36:08;65.07;;;58.35;;
77944;SDS011;67142;47.404;-1.384;2023-06-14T10:38:35;67.97;;;60.83;;
77944;SDS011;67142;47.404;-1.384;2023-06-14T10:41:02;63.93;;;57.30;;
77944;SDS011;67142;47.404;-1.384;2023-06-14T10:43:28;66.85;;;60.05;;
77944;SDS011;67142;47.404;-1.384;2023-06-14T10:48:57;66.57;;;59.55;;
77944;SDS011;67142;47.404;-1.384;2023-06-14T10:51:24;58.38;;;52.63;;
77944;SDS011;67142;47.404;-1.384;2023-06-14T10:53:51;60.27;;;54.23;;
77944;SDS011;67142;47.404;-1.384;2023-06-14T10:56:23;60.80;;;54.63;;
77944;SDS011;67142;47.404;-1.384;2023-06-14T10:58:51;62.08;;;55.75;;
77944;SDS011;67142;47.404;-1.384;2023-06-14T11:01:19;62.42;;;55.92;;
77944;SDS011;67142;47.404;-1.384;2023-06-14T11:03:50;62.85;;;56.25;;
77944;SDS011;67142;47.404;-1.384;2023-06-14T11:06:17;70.93;;;63.17;;
77944;SDS011;67142;47.404;-1.384;2023-06-14T11:11:29;69.03;;;61.78;;
77944;SDS011;67142;47.404;-1.384;2023-06-14T11:13:58;68.68;;;61.53;;
77944;SDS011;67142;47.404;-1.384;2023-06-14T11:16:26;74.60;;;65.75;;
77944;SDS011;67142;47.404;-1.384;2023-06-14T11:18:53;58.13;;;52.33;;
77944;SDS011;67142;47.404;-1.384;2023-06-14T11:21:19;46.10;;;41.55;;
77944;SDS011;67142;47.404;-1.384;2023-06-14T11:23:49;67.30;;;60.00;;
77944;SDS011;67142;47.404;-1.384;2023-06-14T11:26:15;64.68;;;57.97;;
77944;SDS011;67142;47.404;-1.384;2023-06-14T11:28:41;60.60;;;54.50;;
77944;SDS011;67142;47.404;-1.384;2023-06-14T11:31:08;67.87;;;60.83;;
77944;SDS011;67142;47.404;-1.384;2023-06-14T11:33:35;54.15;;;48.95;;
77944;SDS011;67142;47.404;-1.384;2023-06-14T11:36:01;46.17;;;41.78;;
77944;SDS011;67142;47.404;-1.384;2023-06-14T11:38:27;41.03;;;36.85;;
77944;SDS011;67142;47.404;-1.384;2023-06-14T11:40:58;38.97;;;34.97;;
77944;SDS011;67142;47.404;-1.384;2023-06-14T11:43:24;34.17;;;30.47;;
77944;SDS011;67142;47.404;-1.384;2023-06-14T11:45:52;46.47;;;41.80;;
77944;SDS011;67142;47.404;-1.384;2023-06-14T11:48:18;46.80;;;42.05;;
77944;SDS011;67142;47.404;-1.384;2023-06-14T11:50:44;42.78;;;38.35;;
77944;SDS011;67142;47.404;-1.384;2023-06-14T11:53:16;39.75;;;35.50;;
77944;SDS011;67142;47.404;-1.384;2023-06-14T11:55:42;38.27;;;31.10;;
77944;SDS011;67142;47.404;-1.384;2023-06-14T11:58:10;36.60;;;32.25;;
77944;SDS011;67142;47.404;-1.384;2023-06-14T12:00:36;36.20;;;30.15;;
77944;SDS011;67142;47.404;-1.384;2023-06-14T12:03:03;41.05;;;36.90;;
77944;SDS011;67142;47.404;-1.384;2023-06-14T12:05:29;39.25;;;35.13;;
77944;SDS011;67142;47.404;-1.384;2023-06-14T12:08:02;36.93;;;32.83;;
77944;SDS011;67142;47.404;-1.384;2023-06-14T12:10:42;38.08;;;32.65;;
77944;SDS011;67142;47.404;-1.384;2023-06-14T12:13:08;36.50;;;32.55;;
77944;SDS011;67142;47.404;-1.384;2023-06-14T12:15:35;38.30;;;34.15;;
77944;SDS011;67142;47.404;-1.384;2023-06-14T12:18:04;36.42;;;32.55;;
77944;SDS011;67142;47.404;-1.384;2023-06-14T12:20:31;36.37;;;31.87;;
77944;SDS011;67142;47.404;-1.384;2023-06-14T12:22:58;35.30;;;31.00;;
77944;SDS011;67142;47.404;-1.384;2023-06-14T12:25:30;33.70;;;30.15;;
77944;SDS011;67142;47.404;-1.384;2023-06-14T12:27:59;32.47;;;28.52;;
77944;SDS011;67142;47.404;-1.384;2023-06-14T12:30:29;32.97;;;29.17;;
77944;SDS011;67142;47.404;-1.384;2023-06-14T12:32:55;32.87;;;28.20;;
77944;SDS011;67142;47.404;-1.384;2023-06-14T12:35:21;32.65;;;29.08;;
77944;SDS011;67142;47.404;-1.384;2023-06-14T12:37:47;36.90;;;29.15;;
77944;SDS011;67142;47.404;-1.384;2023-06-14T12:40:13;32.70;;;29.13;;
77944;SDS011;67142;47.404;-1.384;2023-06-14T12:42:40;33.47;;;29.42;;
77944;SDS011;67142;47.404;-1.384;2023-06-14T12:45:06;33.77;;;29.60;;
77944;SDS011;67142;47.404;-1.384;2023-06-14T12:47:32;32.17;;;28.58;;
77944;SDS011;67142;47.404;-1.384;2023-06-14T12:49:58;34.92;;;31.17;;
77944;SDS011;67142;47.404;-1.384;2023-06-14T12:52:24;34.00;;;28.95;;
77944;SDS011;67142;47.404;-1.384;2023-06-14T12:54:50;35.63;;;31.38;;
77944;SDS011;67142;47.404;-1.384;2023-06-14T12:57:16;38.77;;;34.63;;
77944;SDS011;67142;47.404;-1.384;2023-06-14T12:59:42;38.95;;;34.80;;
77944;SDS011;67142;47.404;-1.384;2023-06-14T13:02:12;31.92;;;27.50;;
77944;SDS011;67142;47.404;-1.384;2023-06-14T13:04:38;37.38;;;27.80;;
77944;SDS011;67142;47.404;-1.384;2023-06-14T13:07:04;33.67;;;28.10;;
77944;SDS011;67142;47.404;-1.384;2023-06-14T13:09:31;39.17;;;34.90;;
77944;SDS011;67142;47.404;-1.384;2023-06-14T13:11:57;36.05;;;32.13;;
77944;SDS011;67142;47.404;-1.384;2023-06-14T13:14:23;48.63;;;43.80;;
77944;SDS011;67142;47.404;-1.384;2023-06-14T13:16:49;40.58;;;36.45;;
77944;SDS011;67142;47.404;-1.384;2023-06-14T13:19:15;44.10;;;39.55;;
77944;SDS011;67142;47.404;-1.384;2023-06-14T13:21:41;55.53;;;50.03;;
77944;SDS011;67142;47.404;-1.384;2023-06-14T13:24:07;44.25;;;39.65;;
77944;SDS011;67142;47.404;-1.384;2023-06-14T13:26:33;33.08;;;28.92;;
77944;SDS011;67142;47.404;-1.384;2023-06-14T13:29:00;32.28;;;27.08;;
77944;SDS011;67142;47.404;-1.384;2023-06-14T13:31:26;31.77;;;26.17;;
77944;SDS011;67142;47.404;-1.384;2023-06-14T13:33:52;29.47;;;23.87;;
77944;SDS011;67142;47.404;-1.384;2023-06-14T13:36:19;29.92;;;25.10;;
77944;SDS011;67142;47.404;-1.384;2023-06-14T13:38:45;32.92;;;25.90;;
77944;SDS011;67142;47.404;-1.384;2023-06-14T13:41:11;29.33;;;24.83;;
77944;SDS011;67142;47.404;-1.384;2023-06-14T13:43:37;29.50;;;24.80;;
77944;SDS011;67142;47.404;-1.384;2023-06-14T13:46:03;29.47;;;24.07;;
77944;SDS011;67142;47.404;-1.384;2023-06-14T13:48:29;29.77;;;24.58;;
77944;SDS011;67142;47.404;-1.384;2023-06-14T13:50:57;31.13;;;26.27;;
77944;SDS011;67142;47.404;-1.384;2023-06-14T13:53:23;29.08;;;24.48;;
77944;SDS011;67142;47.404;-1.384;2023-06-14T13:55:49;28.38;;;24.52;;
77944;SDS011;67142;47.404;-1.384;2023-06-14T13:58:15;33.00;;;25.00;;
77944;SDS011;67142;47.404;-1.384;2023-06-14T14:00:41;29.88;;;25.80;;
77944;SDS011;67142;47.404;-1.384;2023-06-14T14:03:07;31.33;;;25.73;;
77944;SDS011;67142;47.404;-1.384;2023-06-14T14:05:34;28.38;;;24.27;;